Time;durP1;ratioP1;P1;durP2;ratioP2;P2;SDS_P1;SDS_P2;PMS_P1;PMS_P2;Temp;Humidity;BMP_temperature;BMP_pressure;BME280_temperature;BME280_humidity;BME280_pressure;Samples;Min_cycle;Max_cycle;Signal;HPM_P1;HPM_P2
2022/09/10 00:01:01;;;;;;;9.50;5.28;;;;;;;18.30;100.00;99467.31;4292354;33;36072;-82
2022/09/10 00:03:48;;;;;;;10.25;5.90;;;;;;;18.17;100.00;99465.84;4291448;33;35871;-81
2022/09/10 00:06:37;;;;;;;12.13;6.68;;;;;;;18.93;100.00;99473.59;4288997;33;34402;-81
2022/09/10 00:09:23;;;;;;;11.95;6.50;;;;;;;18.42;100.00;99466.31;4277295;33;34773;-80
2022/09/10 00:12:10;;;;;;;10.80;6.32;;;;;;;19.23;100.00;99463.34;4285620;33;181535;-81
2022/09/10 00:14:56;;;;;;;15.65;6.85;;;;;;;18.69;100.00;99469.19;4289727;33;34729;-81
2022/09/10 00:17:43;;;;;;;10.35;6.55;;;;;;;18.90;100.00;99460.44;4292740;33;34193;-81
2022/09/10 00:20:29;;;;;;;10.02;6.45;;;;;;;19.43;100.00;99458.50;4282623;33;34631;-81
2022/09/10 00:23:17;;;;;;;9.10;6.05;;;;;;;19.51;100.00;99460.19;4278615;33;34932;-81
2022/09/10 00:26:18;;;;;;;12.07;6.20;;;;;;;19.18;100.00;99447.03;4278009;33;35495;-81
2022/09/10 00:29:07;;;;;;;11.32;5.57;;;;;;;19.61;100.00;99453.22;4284876;33;34305;-81
2022/09/10 00:31:54;;;;;;;14.38;6.68;;;;;;;20.23;100.00;99444.44;4278877;33;34835;-80
2022/09/10 00:34:39;;;;;;;8.88;5.37;;;;;;;20.02;100.00;99433.09;4291469;33;36017;-81
2022/09/10 00:37:26;;;;;;;8.18;5.45;;;;;;;20.03;100.00;99438.25;4279896;33;34447;-81
2022/09/10 00:40:13;;;;;;;10.43;5.03;;;;;;;19.92;100.00;99426.19;4293044;33;34123;-81
2022/09/10 00:43:00;;;;;;;7.70;4.45;;;;;;;20.12;100.00;99424.88;4280938;33;34666;-81
2022/09/10 00:45:50;;;;;;;7.65;5.50;;;;;;;19.46;100.00;99445.81;4279798;33;34913;-81
2022/09/10 00:48:36;;;;;;;7.85;5.07;;;;;;;18.77;100.00;99441.19;4281915;33;32743;-81
2022/09/10 00:51:25;;;;;;;12.37;5.90;;;;;;;17.87;100.00;99437.91;4294263;33;35085;-81
2022/09/10 00:54:13;;;;;;;9.32;5.65;;;;;;;18.42;100.00;99444.94;4281101;33;34631;-81
2022/09/10 00:57:04;;;;;;;6.60;4.53;;;;;;;19.30;100.00;99438.47;4274771;33;35503;-81
2022/09/10 00:59:55;;;;;;;7.62;4.50;;;;;;;19.77;100.00;99428.00;4272174;33;34893;-81
2022/09/10 01:02:42;;;;;;;7.15;4.32;;;;;;;19.97;100.00;99426.66;4272635;33;33727;-81
2022/09/10 01:05:29;;;;;;;9.65;4.70;;;;;;;19.10;100.00;99432.22;4281606;33;36717;-81
2022/09/10 01:08:17;;;;;;;7.07;4.03;;;;;;;20.12;100.00;99426.81;4277630;33;35667;-81
2022/09/10 01:11:10;;;;;;;8.13;4.47;;;;;;;19.89;100.00;99424.19;4279123;33;34332;-81
2022/09/10 01:14:31;;;;;;;10.68;4.22;;;;;;;19.23;100.00;99427.25;4283620;33;32861;-81
2022/09/10 01:17:28;;;;;;;8.30;3.70;;;;;;;19.57;100.00;99424.56;4280469;33;34571;-81
2022/09/10 01:20:25;;;;;;;6.65;3.85;;;;;;;19.83;100.00;99414.59;4292116;33;35026;-81
2022/09/10 01:23:40;;;;;;;6.85;3.53;;;;;;;19.09;100.00;99415.94;4291518;33;34358;-81
2022/09/10 01:26:43;;;;;;;5.85;3.58;;;;;;;17.98;100.00;99414.78;4290209;33;35128;-81
2022/09/10 01:29:39;;;;;;;4.87;3.12;;;;;;;17.34;100.00;99410.66;4279853;33;35583;-81
2022/09/10 01:32:30;;;;;;;7.05;3.97;;;;;;;17.26;100.00;99403.34;4279135;33;35677;-81
2022/09/10 01:35:19;;;;;;;5.97;3.55;;;;;;;17.44;100.00;99382.38;4278956;33;34687;-81
2022/09/10 01:38:12;;;;;;;8.70;3.67;;;;;;;17.67;100.00;99389.97;4291552;33;34870;-81
2022/09/10 01:40:59;;;;;;;6.05;3.78;;;;;;;17.35;100.00;99381.78;4280403;33;34617;-81
2022/09/10 01:43:46;;;;;;;9.35;3.42;;;;;;;18.43;100.00;99374.41;4281473;33;35934;-81
2022/09/10 01:46:33;;;;;;;5.53;3.70;;;;;;;18.78;100.00;99373.41;4281754;33;34676;-81
2022/09/10 01:49:35;;;;;;;9.02;3.35;;;;;;;18.61;100.00;99360.03;4291352;33;33773;-81
2022/09/10 01:52:44;;;;;;;7.28;3.45;;;;;;;19.40;100.00;99366.78;4281588;33;35563;-81
2022/09/10 01:55:55;;;;;;;6.78;3.55;;;;;;;19.59;100.00;99386.06;4273485;33;34848;-81
2022/09/10 01:58:43;;;;;;;5.95;3.22;;;;;;;19.20;100.00;99383.56;4283122;33;34708;-82
2022/09/10 02:01:47;;;;;;;8.45;3.67;;;;;;;18.07;100.00;99366.63;4279196;33;35426;-81
2022/09/10 02:04:34;;;;;;;6.68;3.80;;;;;;;18.64;100.00;99350.94;4292049;33;34701;-81
2022/09/10 02:07:23;;;;;;;11.00;4.00;;;;;;;18.27;100.00;99339.63;4268519;33;34928;-80
2022/09/10 02:10:10;;;;;;;5.97;3.53;;;;;;;18.34;100.00;99346.13;4280827;33;34620;-81
2022/09/10 02:12:57;;;;;;;6.85;3.28;;;;;;;17.79;100.00;99353.03;4292140;33;34105;-81
2022/09/10 02:15:44;;;;;;;7.32;3.83;;;;;;;17.02;100.00;99351.81;4277715;33;34405;-81
2022/09/10 02:18:31;;;;;;;7.90;4.12;;;;;;;17.33;100.00;99350.06;4282089;33;34912;-81
2022/09/10 02:21:18;;;;;;;7.18;4.80;;;;;;;16.77;100.00;99354.00;4289383;33;34382;-80
2022/09/10 02:24:07;;;;;;;8.23;4.30;;;;;;;16.59;100.00;99362.63;4292456;33;35161;-81
2022/09/10 02:26:53;;;;;;;5.78;3.33;;;;;;;16.69;100.00;99360.50;4288397;33;34785;-81
2022/09/10 02:29:40;;;;;;;6.22;3.45;;;;;;;16.27;100.00;99366.56;4278865;33;34995;-80
2022/09/10 02:32:27;;;;;;;5.12;3.03;;;;;;;16.62;100.00;99353.63;4282678;33;34799;-81
2022/09/10 02:35:14;;;;;;;4.30;2.72;;;;;;;16.77;100.00;99351.22;4289116;33;34145;-81
2022/09/10 02:38:04;;;;;;;5.15;2.42;;;;;;;16.85;100.00;99347.47;4295446;33;34681;-81
2022/09/10 02:40:50;;;;;;;5.95;3.05;;;;;;;16.57;100.00;99345.59;4286646;33;35236;-81
2022/09/10 02:43:37;;;;;;;5.82;2.80;;;;;;;16.29;100.00;99342.12;4288084;33;35999;-82
2022/09/10 02:46:23;;;;;;;7.32;3.15;;;;;;;15.82;100.00;99342.84;4284208;33;34238;-82
2022/09/10 02:49:10;;;;;;;4.03;2.70;;;;;;;15.91;100.00;99344.31;4288940;33;34719;-81
2022/09/10 02:51:57;;;;;;;8.00;2.58;;;;;;;15.87;100.00;99342.59;4290860;33;34552;-84
2022/09/10 02:54:43;;;;;;;5.57;2.40;;;;;;;15.65;100.00;99342.00;4289739;33;35808;-81
2022/09/10 02:57:29;;;;;;;5.10;2.03;;;;;;;15.58;100.00;99349.28;4285496;33;35309;-83
2022/09/10 03:00:16;;;;;;;3.40;1.90;;;;;;;15.90;100.00;99347.41;4287921;33;34735;-81
2022/09/10 03:03:02;;;;;;;3.30;2.00;;;;;;;16.09;100.00;99349.50;4263921;33;34943;-82
2022/09/10 03:05:48;;;;;;;6.53;2.10;;;;;;;16.25;100.00;99346.75;4287424;33;34277;-83
2022/09/10 03:08:35;;;;;;;4.78;2.00;;;;;;;16.08;100.00;99359.78;4269571;33;33976;-81
2022/09/10 03:11:22;;;;;;;3.45;1.92;;;;;;;15.78;100.00;99350.25;4273162;33;35582;-83
2022/09/10 03:14:11;;;;;;;5.22;1.90;;;;;;;15.53;100.00;99351.13;4280588;33;34515;-82
2022/09/10 03:16:57;;;;;;;3.47;1.70;;;;;;;15.72;100.00;99347.75;4262328;33;34180;-81
2022/09/10 03:19:43;;;;;;;6.85;2.05;;;;;;;15.41;100.00;99353.13;4266401;33;34108;-82
2022/09/10 03:22:30;;;;;;;5.68;2.12;;;;;;;15.34;100.00;99350.16;4292165;33;35732;-81
2022/09/10 03:25:18;;;;;;;5.22;2.25;;;;;;;15.54;100.00;99346.41;4287668;33;34360;-81
2022/09/10 03:28:04;;;;;;;4.80;2.08;;;;;;;15.68;100.00;99352.38;4273689;33;34606;-82
2022/09/10 03:30:50;;;;;;;3.03;1.75;;;;;;;15.80;100.00;99345.19;4288042;33;33727;-81
2022/09/10 03:33:37;;;;;;;4.47;1.80;;;;;;;16.45;100.00;99351.22;4283000;33;34712;-81
2022/09/10 03:36:27;;;;;;;4.55;1.70;;;;;;;16.75;100.00;99345.22;4286947;33;34963;-81
2022/09/10 03:39:15;;;;;;;2.60;1.65;;;;;;;16.54;100.00;99343.53;4280627;33;34678;-81
2022/09/10 03:42:04;;;;;;;2.58;1.58;;;;;;;16.73;100.00;99334.50;4273494;33;33645;-81
2022/09/10 03:44:51;;;;;;;3.12;1.50;;;;;;;16.83;100.00;99339.50;4289577;33;35657;-81
2022/09/10 03:47:38;;;;;;;3.45;1.77;;;;;;;15.96;100.00;99341.28;4289000;33;35801;-82
2022/09/10 03:50:25;;;;;;;3.08;1.60;;;;;;;15.80;100.00;99345.19;4287147;33;33722;-82
2022/09/10 03:53:14;;;;;;;3.30;1.77;;;;;;;16.02;100.00;99338.25;4288174;33;33369;-81
2022/09/10 03:56:00;;;;;;;2.55;1.40;;;;;;;16.16;100.00;99333.91;4288733;33;34248;-81
2022/09/10 03:58:48;;;;;;;3.03;1.25;;;;;;;15.98;100.00;99340.94;4291471;33;34889;-84
2022/09/10 04:01:34;;;;;;;2.95;1.10;;;;;;;15.48;100.00;99348.62;4275154;33;34581;-82
2022/09/10 04:04:22;;;;;;;2.15;1.05;;;;;;;15.36;100.00;99334.06;4280624;33;34625;-81
2022/09/10 04:07:10;;;;;;;1.70;0.90;;;;;;;15.42;100.00;99338.16;4268993;33;33935;-81
2022/09/10 04:09:56;;;;;;;2.12;1.00;;;;;;;15.25;100.00;99351.13;4274610;33;34591;-82
2022/09/10 04:12:42;;;;;;;4.05;1.05;;;;;;;15.12;100.00;99340.47;4283728;33;35079;-81
2022/09/10 04:15:28;;;;;;;1.60;0.90;;;;;;;15.52;100.00;99348.72;4277271;33;34154;-81
2022/09/10 04:18:15;;;;;;;1.85;0.88;;;;;;;15.21;100.00;99354.91;4282662;33;35236;-83
2022/09/10 04:21:03;;;;;;;4.43;1.10;;;;;;;15.10;100.00;99354.59;4265405;33;35982;-82
2022/09/10 04:23:54;;;;;;;3.62;0.90;;;;;;;15.60;100.00;99361.59;4286896;33;35609;-82
2022/09/10 04:26:40;;;;;;;1.67;0.95;;;;;;;15.40;100.00;99362.59;4273137;33;34182;-86
2022/09/10 04:29:27;;;;;;;1.40;0.73;;;;;;;15.47;100.00;99382.09;4278645;33;35124;-81
2022/09/10 04:32:13;;;;;;;2.67;0.90;;;;;;;15.36;100.00;99372.69;4288710;33;34037;-81
2022/09/10 04:35:01;;;;;;;2.85;1.02;;;;;;;15.56;100.00;99376.44;4292316;33;35112;-81
2022/09/10 04:37:47;;;;;;;2.08;0.73;;;;;;;15.88;100.00;99372.66;4279032;33;35031;-82
2022/09/10 04:40:34;;;;;;;1.80;0.90;;;;;;;15.75;100.00;99368.34;4273057;33;34299;-82
2022/09/10 04:43:24;;;;;;;2.12;0.88;;;;;;;15.85;100.00;99367.84;4272722;33;34991;-80
2022/09/10 04:46:10;;;;;;;5.95;1.00;;;;;;;16.00;100.00;99359.94;4275403;33;34833;-82
2022/09/10 04:48:59;;;;;;;2.35;1.02;;;;;;;15.33;100.00;99363.16;4288806;33;34341;-81
2022/09/10 04:51:45;;;;;;;1.90;0.98;;;;;;;15.37;100.00;99364.09;4289363;33;34312;-81
2022/09/10 04:54:32;;;;;;;4.37;1.37;;;;;;;15.64;100.00;99362.47;4270406;33;33996;-81
2022/09/10 04:57:19;;;;;;;1.73;0.70;;;;;;;15.72;100.00;99361.56;4280948;33;34607;-83
2022/09/10 05:00:06;;;;;;;2.00;1.02;;;;;;;15.96;100.00;99346.81;4291164;33;33871;-81
2022/09/10 05:02:54;;;;;;;2.45;0.82;;;;;;;16.08;100.00;99354.25;4272067;33;36235;-81
2022/09/10 05:05:45;;;;;;;1.30;0.65;;;;;;;15.94;100.00;99356.62;4292094;33;34876;-81
2022/09/10 05:08:32;;;;;;;1.85;0.70;;;;;;;15.71;100.00;99354.44;4274271;33;35009;-81
2022/09/10 05:11:18;;;;;;;4.20;0.70;;;;;;;15.73;100.00;99363.16;4285044;33;33895;-81
2022/09/10 05:14:06;;;;;;;0.90;0.65;;;;;;;16.04;100.00;99353.31;4270550;33;35122;-81
2022/09/10 05:16:52;;;;;;;2.00;1.08;;;;;;;15.91;100.00;99351.81;4274935;33;36011;-81
2022/09/10 05:19:38;;;;;;;3.78;0.90;;;;;;;15.80;100.00;99361.75;4285448;33;34647;-81
2022/09/10 05:22:25;;;;;;;2.75;0.70;;;;;;;15.97;100.00;99358.69;4276221;33;34117;-80
2022/09/10 05:25:21;;;;;;;4.07;0.80;;;;;;;16.31;100.00;99357.19;4270890;33;34600;-81
2022/09/10 05:28:08;;;;;;;2.22;0.80;;;;;;;16.71;100.00;99367.28;4271631;33;35893;-81
2022/09/10 05:30:54;;;;;;;1.25;0.80;;;;;;;17.15;100.00;99374.63;4286200;33;34616;-82
2022/09/10 05:33:41;;;;;;;1.62;0.82;;;;;;;17.15;100.00;99363.53;4287090;33;33904;-81
2022/09/10 05:36:30;;;;;;;2.95;0.90;;;;;;;16.40;100.00;99362.56;4283955;33;34294;-82
2022/09/10 05:39:17;;;;;;;3.15;0.80;;;;;;;15.93;100.00;99366.06;4286489;33;35012;-81
2022/09/10 05:42:04;;;;;;;3.50;0.95;;;;;;;16.01;100.00;99367.84;4273511;33;34805;-82
2022/09/10 05:44:52;;;;;;;2.22;0.73;;;;;;;16.06;100.00;99372.34;4273910;33;35334;-82
2022/09/10 05:47:38;;;;;;;1.08;0.75;;;;;;;16.50;100.00;99380.56;4283327;33;34138;-83
2022/09/10 05:50:24;;;;;;;2.12;0.70;;;;;;;16.81;100.00;99386.09;4289737;33;35009;-82
2022/09/10 05:53:11;;;;;;;4.65;1.15;;;;;;;16.57;100.00;99381.56;4281316;33;35229;-81
2022/09/10 05:55:58;;;;;;;2.20;1.10;;;;;;;16.78;100.00;99380.50;4281381;33;35021;-82
2022/09/10 05:58:44;;;;;;;1.45;0.70;;;;;;;16.54;100.00;99385.03;4287484;33;34993;-82
2022/09/10 06:01:32;;;;;;;2.50;1.37;;;;;;;16.85;100.00;99375.13;4296949;33;34508;-82
2022/09/10 06:04:19;;;;;;;2.87;0.80;;;;;;;16.89;100.00;99376.00;4292695;33;34631;-81
2022/09/10 06:07:07;;;;;;;2.62;0.85;;;;;;;17.17;100.00;99377.84;4263197;33;34142;-82
2022/09/10 06:09:54;;;;;;;3.03;0.88;;;;;;;17.47;100.00;99369.75;4284458;33;34308;-82
2022/09/10 06:12:46;;;;;;;4.18;1.00;;;;;;;17.81;100.00;99375.63;4272979;33;34457;-82
2022/09/10 06:15:34;;;;;;;1.55;0.88;;;;;;;17.21;100.00;99368.44;4273002;33;34948;-82
2022/09/10 06:18:20;;;;;;;4.00;0.82;;;;;;;17.41;100.00;99368.47;4271947;33;33662;-82
2022/09/10 06:21:26;;;;;;;1.58;1.00;;;;;;;17.29;100.00;99377.69;4277156;33;34187;-82
2022/09/10 06:24:14;;;;;;;3.47;0.93;;;;;;;16.84;100.00;99373.50;4283541;33;34993;-84
2022/09/10 06:27:01;;;;;;;1.67;0.80;;;;;;;17.15;100.00;99367.13;4277542;33;34593;-82
2022/09/10 06:29:47;;;;;;;3.37;1.00;;;;;;;17.04;100.00;99372.41;4284896;33;35106;-83
2022/09/10 06:32:34;;;;;;;2.87;1.00;;;;;;;16.94;100.00;99369.41;4285139;33;35675;-83
2022/09/10 06:35:21;;;;;;;1.30;0.80;;;;;;;17.37;100.00;99373.12;4260943;33;34888;-82
2022/09/10 06:38:07;;;;;;;1.75;0.85;;;;;;;16.78;100.00;99375.75;4286996;33;34934;-81
2022/09/10 06:40:59;;;;;;;2.85;1.10;;;;;;;17.53;100.00;99380.22;4290350;33;34296;-81
2022/09/10 06:43:46;;;;;;;2.10;0.70;;;;;;;16.82;100.00;99375.84;4281991;33;34168;-81
2022/09/10 06:46:33;;;;;;;2.35;0.82;;;;;;;17.16;100.00;99387.28;4283145;33;35762;-82
2022/09/10 06:49:40;;;;;;;2.05;0.90;;;;;;;16.98;100.00;99378.59;4291249;33;35986;-83
2022/09/10 06:52:28;;;;;;;1.10;0.90;;;;;;;17.15;100.00;99380.94;4281053;33;33839;-82
2022/09/10 06:55:17;;;;;;;0.68;0.60;;;;;;;17.35;100.00;99384.56;4279830;33;35366;-80
2022/09/10 06:58:03;;;;;;;2.25;0.95;;;;;;;17.29;100.00;99383.25;4282987;33;35921;-81
2022/09/10 07:00:50;;;;;;;1.85;0.93;;;;;;;18.04;100.00;99397.84;4276520;33;35589;-80
2022/09/10 07:03:36;;;;;;;2.28;1.00;;;;;;;17.76;100.00;99396.12;4292018;33;33770;-81
2022/09/10 07:06:24;;;;;;;4.47;1.10;;;;;;;17.87;100.00;99397.16;4281650;33;34748;-79
2022/09/10 07:09:11;;;;;;;1.70;0.90;;;;;;;17.29;100.00;99397.09;4283539;33;36021;-80
2022/09/10 07:11:59;;;;;;;4.35;1.00;;;;;;;16.82;100.00;99400.72;4292777;33;34700;-79
2022/09/10 07:14:46;;;;;;;1.67;1.00;;;;;;;17.37;100.00;99403.59;4285366;33;34212;-80
2022/09/10 07:17:34;;;;;;;4.97;1.15;;;;;;;17.30;100.00;99418.06;4279021;33;34568;-79
2022/09/10 07:20:25;;;;;;;3.40;0.85;;;;;;;17.62;100.00;99420.75;4287171;33;35946;-78
2022/09/10 07:23:13;;;;;;;2.42;1.00;;;;;;;17.65;100.00;99420.03;4272663;33;34569;-78
2022/09/10 07:26:07;;;;;;;4.15;1.30;;;;;;;16.87;100.00;99425.38;4273188;33;34090;-78
2022/09/10 07:28:53;;;;;;;3.72;1.23;;;;;;;16.89;100.00;99417.53;4270831;33;34766;-78
2022/09/10 07:31:40;;;;;;;2.95;1.30;;;;;;;17.81;100.00;99423.53;4281767;33;34506;-78
2022/09/10 07:34:29;;;;;;;2.37;1.10;;;;;;;17.85;100.00;99427.19;4271766;33;35675;-78
2022/09/10 07:37:15;;;;;;;4.40;1.48;;;;;;;17.38;100.00;99425.38;4288264;33;33898;-79
2022/09/10 07:40:03;;;;;;;4.28;1.67;;;;;;;18.25;100.00;99434.31;4284708;33;34414;-78
2022/09/10 07:42:51;;;;;;;8.48;2.12;;;;;;;16.90;100.00;99430.19;4282685;33;34985;-78
2022/09/10 07:45:39;;;;;;;3.90;1.40;;;;;;;16.89;100.00;99436.87;4283599;33;35542;-77
2022/09/10 07:48:27;;;;;;;5.37;1.60;;;;;;;17.01;100.00;99439.53;4276260;33;34107;-78
2022/09/10 07:51:18;;;;;;;2.97;1.50;;;;;;;16.47;100.00;99436.59;4286426;33;34702;-78
2022/09/10 07:54:04;;;;;;;4.37;1.90;;;;;;;17.51;100.00;99437.94;4282975;33;35019;-78
2022/09/10 07:56:51;;;;;;;3.60;1.50;;;;;;;17.32;100.00;99443.44;4277667;33;34678;-79
2022/09/10 07:59:37;;;;;;;2.87;1.62;;;;;;;16.73;100.00;99436.06;4283661;33;34141;-80
2022/09/10 08:02:25;;;;;;;3.15;1.30;;;;;;;16.72;100.00;99445.53;4267193;33;34644;-79
2022/09/10 08:05:13;;;;;;;3.47;1.60;;;;;;;17.35;100.00;99442.72;4293027;33;35000;-79
2022/09/10 08:07:59;;;;;;;3.17;1.40;;;;;;;17.50;100.00;99444.66;4286121;33;34725;-78
2022/09/10 08:10:47;;;;;;;3.08;1.60;;;;;;;17.58;100.00;99440.03;4286923;33;34204;-78
2022/09/10 08:13:35;;;;;;;2.95;1.40;;;;;;;17.69;100.00;99446.63;4286140;33;35606;-78
2022/09/10 08:16:23;;;;;;;2.70;1.12;;;;;;;18.14;100.00;99452.72;4280329;33;35022;-79
2022/09/10 08:19:09;;;;;;;3.12;1.85;;;;;;;18.01;100.00;99452.06;4284313;33;34714;-79
2022/09/10 08:21:58;;;;;;;3.15;1.40;;;;;;;18.17;100.00;99449.22;4277116;33;33591;-79
2022/09/10 08:24:46;;;;;;;2.60;1.35;;;;;;;18.66;100.00;99454.84;4288752;33;34158;-80
2022/09/10 08:27:34;;;;;;;2.17;1.25;;;;;;;18.62;100.00;99461.53;4274315;33;34921;-81
2022/09/10 08:30:20;;;;;;;3.87;1.50;;;;;;;18.37;100.00;99452.75;4290840;33;35305;-80
2022/09/10 08:33:06;;;;;;;2.20;1.08;;;;;;;18.40;100.00;99455.59;4278426;33;35645;-81
2022/09/10 08:35:55;;;;;;;3.03;1.45;;;;;;;18.33;100.00;99447.16;4275403;33;35511;-80
2022/09/10 08:38:43;;;;;;;3.08;1.15;;;;;;;18.35;100.00;99453.09;4284503;33;35006;-80
2022/09/10 08:41:45;;;;;;;2.97;1.10;;;;;;;18.36;100.00;99457.50;4293340;33;34623;-79
2022/09/10 08:44:39;;;;;;;3.97;1.00;;;;;;;18.04;100.00;99453.28;4278746;33;34085;-77
2022/09/10 08:47:52;;;;;;;2.47;0.90;;;;;;;18.15;100.00;99457.09;4289559;33;34709;-81
2022/09/10 08:50:58;;;;;;;2.03;1.10;;;;;;;18.54;100.00;99451.47;4277027;33;34867;-81
2022/09/10 08:53:50;;;;;;;1.27;0.80;;;;;;;17.89;100.00;99444.69;4276024;33;34590;-81
2022/09/10 08:56:39;;;;;;;2.50;0.62;;;;;;;18.10;100.00;99460.97;4282903;33;34255;-81
2022/09/10 08:59:32;;;;;;;2.05;0.60;;;;;;;18.33;98.95;99460.22;4280756;33;34176;-79
2022/09/10 09:02:58;;;;;;;1.85;0.55;;;;;;;18.55;96.22;99459.41;4278679;33;35662;-80
2022/09/10 09:05:47;;;;;;;1.12;0.43;;;;;;;18.52;97.11;99464.91;4255234;33;35182;-79
2022/09/10 09:08:40;;;;;;;0.82;0.40;;;;;;;19.14;94.09;99460.03;4268125;33;34092;-80
2022/09/10 09:11:52;;;;;;;1.90;0.40;;;;;;;18.70;95.77;99466.03;4289490;33;34528;-80
2022/09/10 09:15:11;;;;;;;2.17;0.37;;;;;;;19.51;91.89;99464.97;4271923;33;34965;-80
2022/09/10 09:18:09;;;;;;;1.33;0.60;;;;;;;19.38;94.18;99455.22;4289213;33;33593;-80
2022/09/10 09:20:59;;;;;;;0.90;0.40;;;;;;;19.47;92.40;99459.34;4282396;33;38148;-79
2022/09/10 09:23:54;;;;;;;0.85;0.40;;;;;;;19.15;93.76;99458.88;4285965;33;34620;-80
2022/09/10 09:27:08;;;;;;;1.45;0.70;;;;;;;19.71;92.11;99457.31;4283421;33;35040;-80
2022/09/10 09:30:00;;;;;;;0.80;0.50;;;;;;;19.83;92.16;99454.28;4273026;33;34586;-79
2022/09/10 09:32:48;;;;;;;0.65;0.20;;;;;;;20.00;89.25;99455.69;4282538;33;35223;-79
2022/09/10 09:35:45;;;;;;;1.05;0.50;;;;;;;20.14;89.71;99453.09;4288363;33;35514;-81
2022/09/10 09:38:41;;;;;;;0.98;0.40;;;;;;;20.38;83.06;99462.09;4280354;33;35026;-81
2022/09/10 09:41:51;;;;;;;1.00;0.40;;;;;;;20.69;82.14;99455.28;4291128;33;34330;-82
2022/09/10 09:44:44;;;;;;;1.45;0.40;;;;;;;20.04;83.69;99456.56;4273819;33;33987;-83
2022/09/10 09:47:31;;;;;;;0.98;0.30;;;;;;;20.33;81.17;99451.31;4287777;33;34586;-79
2022/09/10 09:50:18;;;;;;;2.40;0.30;;;;;;;20.66;81.05;99445.72;4280646;33;34783;-82
2022/09/10 09:53:04;;;;;;;1.92;0.30;;;;;;;20.84;79.76;99448.66;4290654;33;34255;-81
2022/09/10 09:55:55;;;;;;;0.90;0.20;;;;;;;21.35;79.38;99441.47;4282346;33;35091;-82
2022/09/10 09:58:46;;;;;;;;;;;;;;;21.39;75.44;99436.75;4276028;33;35516;-82
2022/09/10 10:01:32;;;;;;;1.23;0.40;;;;;;;21.45;75.59;99424.03;4283319;33;35370;-83
2022/09/10 10:04:24;;;;;;;1.52;0.32;;;;;;;21.39;77.69;99431.16;4281089;33;35862;-82
2022/09/10 10:07:10;;;;;;;0.40;0.30;;;;;;;21.59;73.63;99431.69;4266091;33;35025;-82
2022/09/10 10:09:59;;;;;;;2.33;0.30;;;;;;;21.17;73.65;99423.81;4289081;33;34229;-81
2022/09/10 10:12:48;;;;;;;0.47;0.30;;;;;;;21.45;74.84;99429.59;4275395;33;36090;-81
2022/09/10 10:15:41;;;;;;;1.20;0.50;;;;;;;20.93;74.66;99428.84;4261804;33;34436;-80
2022/09/10 10:18:33;;;;;;;1.05;0.30;;;;;;;21.05;75.25;99411.81;4285289;33;35249;-81
2022/09/10 10:21:33;;;;;;;3.17;0.47;;;;;;;21.47;73.99;99421.66;4285446;33;34630;-81
2022/09/10 10:24:31;;;;;;;0.50;0.30;;;;;;;20.80;74.70;99411.59;4275899;33;34777;-81
2022/09/10 10:27:34;;;;;;;1.85;0.28;;;;;;;21.01;73.67;99416.56;4271808;33;34446;-81
2022/09/10 10:30:22;;;;;;;0.65;0.25;;;;;;;21.28;73.22;99408.78;4263636;33;34067;-82
2022/09/10 10:33:18;;;;;;;1.42;0.40;;;;;;;21.94;71.03;99405.13;4274522;33;34588;-80
2022/09/10 10:36:21;;;;;;;2.45;0.40;;;;;;;21.88;68.17;99415.88;4273607;33;33740;-80
2022/09/10 10:39:25;;;;;;;1.55;0.20;;;;;;;21.10;72.26;99405.87;4277560;33;34372;-81
2022/09/10 10:42:19;;;;;;;0.77;0.30;;;;;;;21.92;70.17;99407.53;4276189;33;34178;-81
2022/09/10 10:45:25;;;;;;;0.98;0.30;;;;;;;22.11;68.97;99400.78;4285051;33;34651;-81
2022/09/10 10:48:14;;;;;;;1.42;0.30;;;;;;;21.86;66.58;99398.75;4285377;33;35033;-81
2022/09/10 10:51:08;;;;;;;1.40;0.30;;;;;;;22.45;62.79;99407.69;4275818;33;33394;-81
2022/09/10 10:54:13;;;;;;;1.70;0.60;;;;;;;22.41;63.07;99401.28;4287137;33;34751;-79
2022/09/10 10:57:29;;;;;;;0.93;0.30;;;;;;;22.76;62.06;99407.28;4292578;33;33704;-81
2022/09/10 11:00:19;;;;;;;1.10;0.15;;;;;;;23.31;60.36;99402.09;4268644;33;35896;-82
2022/09/10 11:03:10;;;;;;;0.47;0.20;;;;;;;23.09;58.79;99412.50;4265545;33;34499;-82
2022/09/10 11:06:02;;;;;;;0.73;0.17;;;;;;;23.51;55.67;99412.81;4276805;33;33845;-85
2022/09/10 11:09:01;;;;;;;2.67;0.35;;;;;;;22.73;55.80;99399.72;4279013;33;34707;-83
2022/09/10 11:11:58;;;;;;;0.85;0.20;;;;;;;23.38;57.89;99406.84;4273461;33;34927;-80
2022/09/10 11:14:55;;;;;;;2.83;0.40;;;;;;;23.35;52.46;99413.25;4284731;33;34697;-82
2022/09/10 11:17:47;;;;;;;0.65;0.20;;;;;;;24.13;51.98;99405.78;4287952;33;34180;-81
2022/09/10 11:20:43;;;;;;;1.52;0.30;;;;;;;23.18;53.28;99411.28;4280612;33;34614;-81
2022/09/10 11:23:36;;;;;;;1.52;0.28;;;;;;;23.68;53.36;99409.16;4278446;33;33845;-81
2022/09/10 11:26:25;;;;;;;1.17;0.30;;;;;;;22.77;56.40;99408.88;4277091;33;34479;-80
2022/09/10 11:29:39;;;;;;;0.80;0.30;;;;;;;22.54;57.66;99409.28;4272427;33;35035;-78
2022/09/10 11:32:38;;;;;;;2.17;0.37;;;;;;;22.44;58.49;99413.66;4272568;33;34254;-81
2022/09/10 11:35:28;;;;;;;1.85;0.45;;;;;;;22.97;54.84;99412.91;4268267;33;34339;-81
2022/09/10 11:38:22;;;;;;;1.62;0.47;;;;;;;23.79;53.15;99404.34;4282705;33;35656;-80
2022/09/10 11:41:23;;;;;;;2.10;0.50;;;;;;;23.21;56.51;99397.31;4274181;33;33784;-83
2022/09/10 11:44:43;;;;;;;0.85;0.37;;;;;;;23.06;55.69;99398.53;4270002;33;34239;-82
2022/09/10 11:47:41;;;;;;;2.50;0.40;;;;;;;23.17;55.79;99396.53;4272063;33;35939;-81
2022/09/10 11:50:52;;;;;;;2.05;0.30;;;;;;;23.27;54.19;99389.31;4282559;33;34323;-80
2022/09/10 11:53:39;;;;;;;0.60;0.30;;;;;;;23.45;53.31;99390.06;4268840;33;34093;-80
2022/09/10 11:56:40;;;;;;;0.88;0.20;;;;;;;24.20;50.12;99389.75;4266287;33;33152;-80
2022/09/10 11:59:45;;;;;;;;;;;;;;;24.37;48.83;99384.44;4287819;33;34573;-80
2022/09/10 12:02:44;;;;;;;1.08;0.40;;;;;;;23.61;51.44;99386.00;4289592;33;34807;-79
2022/09/10 12:05:34;;;;;;;0.82;0.40;;;;;;;24.46;48.81;99382.00;4295435;33;35165;-81
2022/09/10 12:08:28;;;;;;;3.15;0.40;;;;;;;23.56;50.46;99396.44;4282435;33;34529;-81
2022/09/10 12:11:27;;;;;;;0.43;0.30;;;;;;;24.42;48.96;99393.19;4273291;33;35039;-78
2022/09/10 12:14:18;;;;;;;1.80;0.50;;;;;;;24.71;48.11;99383.81;4279066;33;34692;-80
2022/09/10 12:17:23;;;;;;;2.12;0.57;;;;;;;23.72;51.03;99392.41;4274649;33;34123;-81
2022/09/10 12:20:18;;;;;;;1.20;0.40;;;;;;;23.67;51.65;99390.78;4273639;33;34131;-79
2022/09/10 12:23:17;;;;;;;1.15;0.45;;;;;;;23.63;53.13;99390.00;4272109;33;36066;-81
2022/09/10 12:26:16;;;;;;;1.08;0.70;;;;;;;23.86;49.40;99392.34;4275471;33;34386;-80
2022/09/10 12:29:03;;;;;;;1.17;0.50;;;;;;;24.16;50.06;99385.34;4273907;33;35337;-80
2022/09/10 12:32:08;;;;;;;4.12;0.60;;;;;;;24.30;49.19;99381.69;4273477;33;34665;-80
2022/09/10 12:35:29;;;;;;;1.08;0.40;;;;;;;23.24;50.16;99390.13;4262418;33;35963;-78
2022/09/10 12:38:43;;;;;;;2.53;0.60;;;;;;;23.59;49.06;99392.00;4273655;33;34088;-78
2022/09/10 12:41:30;;;;;;;1.73;0.68;;;;;;;22.67;50.32;99390.94;4286489;33;34172;-80
2022/09/10 12:44:27;;;;;;;1.42;0.50;;;;;;;23.05;49.80;99385.75;4288782;33;35535;-79
2022/09/10 12:47:13;;;;;;;3.15;0.60;;;;;;;22.70;51.68;99389.34;4277198;33;38080;-79
2022/09/10 12:50:03;;;;;;;3.83;0.50;;;;;;;22.98;51.91;99377.41;4289299;33;34706;-80
2022/09/10 12:52:52;;;;;;;2.12;0.70;;;;;;;23.20;51.53;99376.16;4285492;33;34187;-80
2022/09/10 12:55:40;;;;;;;0.93;0.62;;;;;;;23.70;50.14;99364.00;4285568;33;34640;-80
2022/09/10 12:58:46;;;;;;;2.35;0.40;;;;;;;23.68;49.78;99370.00;4264964;33;34517;-82
2022/09/10 13:01:46;;;;;;;1.20;0.50;;;;;;;22.96;50.84;99379.78;4285018;33;35054;-79
2022/09/10 13:04:34;;;;;;;3.30;0.57;;;;;;;23.38;49.94;99375.31;4279105;33;34162;-80
2022/09/10 13:07:24;;;;;;;0.70;0.52;;;;;;;23.70;49.91;99373.22;4274532;33;35549;-79
2022/09/10 13:10:19;;;;;;;2.85;0.50;;;;;;;23.41;50.94;99388.47;4273025;33;35699;-80
2022/09/10 13:13:29;;;;;;;3.10;0.68;;;;;;;22.70;52.83;99372.59;4263787;33;33298;-80
2022/09/10 13:16:16;;;;;;;1.25;0.45;;;;;;;23.38;50.98;99378.09;4265329;33;34197;-79
2022/09/10 13:19:12;;;;;;;1.23;0.50;;;;;;;22.86;52.74;99371.00;4279739;33;34718;-81